Time;durP1;ratioP1;P1;durP2;ratioP2;P2;SDS_P1;SDS_P2;PMS_P1;PMS_P2;Temp;Humidity;BMP_temperature;BMP_pressure;BME280_temperature;BME280_humidity;BME280_pressure;Samples;Min_cycle;Max_cycle;Signal;HPM_P1;HPM_P2
2023/06/10 00:01:59;;;;;;;;;;;27.40;44.50;;;;;;5064069;28;19958;-56
2023/06/10 00:04:25;;;;;;;;;;;27.30;44.40;;;;;;5077443;28;19923;-56
2023/06/10 00:06:51;;;;;;;;;;;27.40;44.50;;;;;;5058648;28;19996;-57
2023/06/10 00:09:18;;;;;;;;;;;27.30;44.40;;;;;;5065459;28;19921;-56
2023/06/10 00:11:43;;;;;;;;;;;27.30;44.40;;;;;;5071453;28;19916;-56
2023/06/10 00:14:09;;;;;;;;;;;27.30;44.50;;;;;;5069599;28;20415;-56
2023/06/10 00:16:35;;;;;;;;;;;27.30;44.50;;;;;;5061476;28;19917;-56
2023/06/10 00:19:02;;;;;;;;;;;27.30;44.40;;;;;;5068684;28;19908;-56
2023/06/10 00:21:28;;;;;;;;;;;27.30;44.40;;;;;;5056960;28;19946;-56
2023/06/10 00:23:55;;;;;;;;;;;27.30;44.40;;;;;;5070959;28;19962;-56
2023/06/10 00:26:21;;;;;;;;;;;27.30;44.40;;;;;;5060354;28;20266;-56
2023/06/10 00:28:46;;;;;;;;;;;27.20;44.30;;;;;;5052125;28;19977;-56
2023/06/10 00:31:12;;;;;;;;;;;27.20;44.50;;;;;;5055816;28;19913;-56
2023/06/10 00:33:37;;;;;;;;;;;27.30;44.60;;;;;;5057166;28;19948;-56
2023/06/10 00:36:03;;;;;;;;;;;27.20;44.50;;;;;;5061352;28;20369;-56
2023/06/10 00:38:28;;;;;;;;;;;27.20;44.40;;;;;;5056005;28;20265;-56
2023/06/10 00:40:54;;;;;;;;;;;27.20;44.50;;;;;;5063732;28;19924;-56
2023/06/10 00:43:19;;;;;;;;;;;27.20;44.40;;;;;;5051686;28;19929;-56
2023/06/10 00:45:45;;;;;;;;;;;27.20;44.50;;;;;;5066852;28;20429;-56
2023/06/10 00:48:10;;;;;;;;;;;27.20;44.30;;;;;;5069012;28;20261;-56
2023/06/10 00:50:39;;;;;;;;;;;27.10;44.40;;;;;;5069527;28;19941;-56
2023/06/10 00:53:04;;;;;;;;;;;27.20;44.50;;;;;;5102773;28;19919;-56
2023/06/10 00:55:30;;;;;;;;;;;27.10;44.30;;;;;;5064961;28;20015;-55
2023/06/10 00:57:55;;;;;;;;;;;27.10;44.30;;;;;;5052047;28;19913;-56
2023/06/10 01:00:21;;;;;;;;;;;27.10;44.30;;;;;;5055348;28;19916;-56
2023/06/10 01:02:47;;;;;;;;;;;27.10;44.30;;;;;;5071439;28;20337;-56
2023/06/10 01:05:13;;;;;;;;;;;27.10;45.00;;;;;;5054454;28;19916;-56
2023/06/10 01:07:47;;;;;;;;;;;27.10;44.30;;;;;;5069699;28;19959;-56
2023/06/10 01:10:19;;;;;;;;;;;27.10;44.30;;;;;;5073001;28;19917;-56
2023/06/10 01:12:48;;;;;;;;;;;27.10;44.30;;;;;;5068560;28;20274;-56
2023/06/10 01:15:17;;;;;;;;;;;27.00;44.30;;;;;;5064549;28;19995;-56
2023/06/10 01:17:58;;;;;;;;;;;27.00;44.20;;;;;;5065568;28;19935;-56
2023/06/10 01:20:26;;;;;;;;;;;27.00;44.20;;;;;;5056234;28;19921;-56
2023/06/10 01:22:54;;;;;;;;;;;27.00;44.10;;;;;;5070037;28;20004;-56
2023/06/10 01:25:20;;;;;;;;;;;27.00;44.20;;;;;;5063057;28;19913;-56
2023/06/10 01:27:46;;;;;;;;;;;27.00;44.20;;;;;;5066595;28;19916;-56
2023/06/10 01:30:13;;;;;;;;;;;27.00;44.10;;;;;;5060658;28;19912;-56
2023/06/10 01:32:40;;;;;;;;;;;27.00;44.00;;;;;;5076095;28;19952;-56
2023/06/10 01:35:05;;;;;;;;;;;27.00;44.00;;;;;;5074412;28;20372;-56
2023/06/10 01:37:31;;;;;;;;;;;27.00;44.10;;;;;;5069177;28;19920;-56
2023/06/10 01:39:57;;;;;;;;;;;27.00;44.10;;;;;;5054847;28;19999;-56
2023/06/10 01:42:23;;;;;;;;;;;27.00;44.10;;;;;;5059780;28;20349;-56
2023/06/10 01:44:48;;;;;;;;;;;27.00;44.10;;;;;;5066723;28;19990;-56
2023/06/10 01:47:14;;;;;;;;;;;26.90;44.00;;;;;;5070354;28;19920;-56
2023/06/10 01:49:39;;;;;;;;;;;26.90;43.80;;;;;;5074988;28;20002;-56
2023/06/10 01:52:05;;;;;;;;;;;26.90;44.60;;;;;;5055456;28;19912;-56
2023/06/10 01:54:31;;;;;;;;;;;26.90;43.90;;;;;;5054589;28;20345;-56
2023/06/10 01:56:56;;;;;;;;;;;26.90;43.80;;;;;;5068791;28;20333;-56
2023/06/10 01:59:22;;;;;;;;;;;26.90;43.80;;;;;;5072076;28;20423;-56
2023/06/10 02:01:47;;;;;;;;;;;26.90;44.00;;;;;;5070785;28;20242;-56
2023/06/10 02:04:12;;;;;;;;;;;26.80;43.80;;;;;;5072426;28;19919;-56
2023/06/10 02:06:38;;;;;;;;;;;26.80;43.80;;;;;;5071453;28;19958;-56
2023/06/10 02:09:03;;;;;;;;;;;26.90;43.80;;;;;;5062507;28;19920;-55
2023/06/10 02:11:29;;;;;;;;;;;26.80;43.80;;;;;;5071129;28;19949;-55
2023/06/10 02:13:54;;;;;;;;;;;26.80;43.80;;;;;;5071667;28;19927;-56
2023/06/10 02:16:21;;;;;;;;;;;26.80;43.70;;;;;;5057950;28;19966;-55
2023/06/10 02:18:46;;;;;;;;;;;26.80;43.70;;;;;;5054206;28;20318;-55
2023/06/10 02:21:12;;;;;;;;;;;26.80;43.70;;;;;;5053865;28;19913;-56
2023/06/10 02:23:37;;;;;;;;;;;26.80;43.70;;;;;;5054762;28;19913;-55
2023/06/10 02:26:03;;;;;;;;;;;26.80;43.50;;;;;;5086572;28;19923;-56
2023/06/10 02:28:28;;;;;;;;;;;26.80;43.60;;;;;;5054651;28;19958;-55
2023/06/10 02:30:54;;;;;;;;;;;26.70;43.50;;;;;;5056710;28;19920;-56
2023/06/10 02:33:19;;;;;;;;;;;26.70;43.50;;;;;;5070100;28;19936;-56
2023/06/10 02:35:45;;;;;;;;;;;26.70;43.40;;;;;;5065908;28;19913;-55
2023/06/10 02:38:10;;;;;;;;;;;26.70;43.50;;;;;;5065534;28;19916;-56
2023/06/10 02:40:36;;;;;;;;;;;26.70;43.50;;;;;;5066642;28;19920;-56
2023/06/10 02:43:01;;;;;;;;;;;26.70;44.10;;;;;;5087443;28;19920;-56
2023/06/10 02:45:26;;;;;;;;;;;26.70;43.40;;;;;;5063634;28;19938;-56
2023/06/10 02:47:52;;;;;;;;;;;26.60;43.50;;;;;;5060217;28;20297;-56
2023/06/10 02:50:18;;;;;;;;;;;26.70;43.50;;;;;;5054132;28;19944;-56
2023/06/10 02:52:43;;;;;;;;;;;26.70;43.30;;;;;;5070033;28;20296;-55
2023/06/10 02:55:09;;;;;;;;;;;26.70;43.40;;;;;;5071903;28;19963;-55
2023/06/10 02:57:34;;;;;;;;;;;26.70;43.50;;;;;;5071453;28;20016;-56
2023/06/10 03:00:01;;;;;;;;;;;26.70;43.40;;;;;;5053805;28;20263;-55
2023/06/10 03:02:28;;;;;;;;;;;26.70;43.30;;;;;;5060657;28;19912;-56
2023/06/10 03:04:55;;;;;;;;;;;26.60;43.30;;;;;;5053305;28;19917;-55
2023/06/10 03:07:20;;;;;;;;;;;26.60;43.30;;;;;;5062927;28;19916;-55
2023/06/10 03:09:46;;;;;;;;;;;26.60;43.30;;;;;;5055203;28;19917;-55
2023/06/10 03:12:11;;;;;;;;;;;26.60;43.20;;;;;;5071778;28;20334;-55
2023/06/10 03:14:38;;;;;;;;;;;26.60;43.20;;;;;;5066299;28;19916;-56
2023/06/10 03:17:04;;;;;;;;;;;26.60;43.20;;;;;;5069670;28;19913;-55
2023/06/10 03:19:30;;;;;;;;;;;26.60;43.20;;;;;;5073536;28;19948;-56
2023/06/10 03:22:09;;;;;;;;;;;26.60;43.20;;;;;;5103064;28;19952;-56
2023/06/10 03:24:35;;;;;;;;;;;26.60;43.20;;;;;;5099674;28;20273;-56
2023/06/10 03:27:01;;;;;;;;;;;26.60;43.30;;;;;;5055672;28;19908;-56
2023/06/10 03:29:27;;;;;;;;;;;26.60;43.20;;;;;;5056031;28;19963;-56
2023/06/10 03:31:52;;;;;;;;;;;26.50;43.10;;;;;;5073518;28;19959;-55
2023/06/10 03:34:18;;;;;;;;;;;26.60;43.20;;;;;;5054792;28;19921;-55
2023/06/10 03:36:43;;;;;;;;;;;26.50;43.10;;;;;;5053762;28;20458;-55
2023/06/10 03:39:09;;;;;;;;;;;26.50;43.10;;;;;;5053267;28;20372;-55
2023/06/10 03:41:34;;;;;;;;;;;26.50;43.10;;;;;;5052726;28;19913;-55
2023/06/10 03:44:00;;;;;;;;;;;26.50;43.10;;;;;;5059872;28;19927;-54
2023/06/10 03:46:26;;;;;;;;;;;26.50;43.10;;;;;;5058056;28;19948;-55
2023/06/10 03:48:51;;;;;;;;;;;26.50;43.20;;;;;;5051341;28;20113;-55
2023/06/10 03:51:17;;;;;;;;;;;26.50;43.10;;;;;;5052814;28;20012;-55
2023/06/10 03:53:42;;;;;;;;;;;26.50;43.20;;;;;;5053112;28;19909;-55
2023/06/10 03:56:08;;;;;;;;;;;26.50;43.80;;;;;;5060756;28;20007;-55
2023/06/10 03:58:33;;;;;;;;;;;26.50;43.10;;;;;;5072952;28;19912;-55
2023/06/10 04:00:59;;;;;;;;;;;26.50;43.10;;;;;;5095326;28;20279;-55
2023/06/10 04:03:24;;;;;;;;;;;26.50;43.20;;;;;;5067574;28;19939;-54
2023/06/10 04:05:50;;;;;;;;;;;26.50;43.20;;;;;;5072645;28;19944;-55
2023/06/10 04:08:15;;;;;;;;;;;26.40;43.10;;;;;;5069376;28;19909;-55
2023/06/10 04:10:41;;;;;;;;;;;26.30;43.00;;;;;;5051751;28;19923;-55
2023/06/10 04:13:06;;;;;;;;;;;26.40;43.10;;;;;;5070017;28;19913;-55
2023/06/10 04:15:34;;;;;;;;;;;26.40;43.20;;;;;;5071666;28;19913;-55
2023/06/10 04:18:01;;;;;;;;;;;26.40;43.10;;;;;;5063488;28;20283;-55
2023/06/10 04:20:26;;;;;;;;;;;26.40;43.10;;;;;;5072770;28;19912;-55
2023/06/10 04:22:52;;;;;;;;;;;26.40;43.10;;;;;;5071759;28;19915;-55
2023/06/10 04:25:17;;;;;;;;;;;26.40;43.00;;;;;;5071577;28;19966;-55
2023/06/10 04:27:43;;;;;;;;;;;26.40;43.20;;;;;;5098717;28;20436;-55
2023/06/10 04:30:08;;;;;;;;;;;26.40;43.10;;;;;;5051874;28;19920;-55
2023/06/10 04:32:34;;;;;;;;;;;26.40;43.10;;;;;;5058402;28;20210;-55
2023/06/10 04:34:59;;;;;;;;;;;26.40;43.20;;;;;;5069350;28;20373;-55
2023/06/10 04:37:25;;;;;;;;;;;26.40;43.20;;;;;;5061060;28;19963;-55
2023/06/10 04:39:50;;;;;;;;;;;26.30;43.00;;;;;;5070612;28;19951;-55
2023/06/10 04:42:16;;;;;;;;;;;26.30;43.10;;;;;;5069914;28;19915;-54
2023/06/10 04:44:41;;;;;;;;;;;26.30;43.80;;;;;;5071063;28;19916;-55
2023/06/10 04:47:07;;;;;;;;;;;26.40;43.20;;;;;;5066050;28;19912;-55
2023/06/10 04:49:33;;;;;;;;;;;26.30;43.10;;;;;;5050584;28;20392;-55
2023/06/10 04:51:59;;;;;;;;;;;26.30;43.00;;;;;;5052129;28;19919;-55
2023/06/10 04:54:25;;;;;;;;;;;26.30;43.10;;;;;;5062262;28;19970;-54
2023/06/10 04:56:50;;;;;;;;;;;26.30;43.10;;;;;;5071936;28;20007;-55
2023/06/10 04:59:16;;;;;;;;;;;26.30;43.20;;;;;;5053449;28;19917;-54
2023/06/10 05:01:41;;;;;;;;;;;26.30;43.20;;;;;;5065251;28;19932;-55
2023/06/10 05:04:07;;;;;;;;;;;26.30;43.20;;;;;;5071166;28;19916;-55
2023/06/10 05:06:32;;;;;;;;;;;26.30;43.20;;;;;;5071163;28;19915;-55
2023/06/10 05:08:57;;;;;;;;;;;26.30;43.20;;;;;;5067546;28;19924;-55
2023/06/10 05:11:23;;;;;;;;;;;26.30;43.20;;;;;;5057511;28;19912;-55
2023/06/10 05:13:48;;;;;;;;;;;26.30;43.30;;;;;;5071262;28;19920;-55
2023/06/10 05:16:14;;;;;;;;;;;26.20;43.20;;;;;;5069801;28;19974;-55
2023/06/10 05:18:40;;;;;;;;;;;26.30;43.30;;;;;;5061179;28;19917;-54
2023/06/10 05:21:06;;;;;;;;;;;26.30;43.30;;;;;;5053318;28;19943;-55
2023/06/10 05:23:31;;;;;;;;;;;26.20;43.30;;;;;;5065982;28;19959;-55
2023/06/10 05:25:58;;;;;;;;;;;26.20;43.40;;;;;;5052553;28;20276;-55
2023/06/10 05:28:23;;;;;;;;;;;26.20;43.30;;;;;;5060499;28;19908;-55
2023/06/10 05:30:49;;;;;;;;;;;26.20;43.40;;;;;;5071648;28;19928;-55
2023/06/10 05:33:15;;;;;;;;;;;26.20;43.50;;;;;;5067969;28;20430;-55
2023/06/10 05:35:40;;;;;;;;;;;26.20;43.40;;;;;;5051480;28;19912;-55
2023/06/10 05:38:06;;;;;;;;;;;26.20;43.40;;;;;;5051760;28;19956;-56
2023/06/10 05:40:32;;;;;;;;;;;26.20;43.50;;;;;;5052000;28;19963;-56
2023/06/10 05:42:57;;;;;;;;;;;26.20;43.50;;;;;;5058388;28;19928;-56
2023/06/10 05:45:23;;;;;;;;;;;26.20;43.50;;;;;;5052704;28;20043;-55
2023/06/10 05:47:48;;;;;;;;;;;26.20;43.50;;;;;;5054131;28;19916;-56
2023/06/10 05:50:13;;;;;;;;;;;26.20;43.60;;;;;;5048539;28;19920;-55
2023/06/10 05:52:42;;;;;;;;;;;26.20;43.60;;;;;;5054235;28;20074;-56
2023/06/10 05:55:07;;;;;;;;;;;26.20;43.60;;;;;;5052455;28;19913;-55
2023/06/10 05:57:33;;;;;;;;;;;26.20;43.60;;;;;;5074480;28;19919;-56
2023/06/10 05:59:58;;;;;;;;;;;26.20;43.70;;;;;;5097368;28;20382;-55
2023/06/10 06:02:24;;;;;;;;;;;26.20;43.70;;;;;;5055354;28;19916;-55
2023/06/10 06:04:49;;;;;;;;;;;26.20;43.70;;;;;;5056039;28;19917;-55
2023/06/10 06:07:15;;;;;;;;;;;26.20;43.70;;;;;;5060453;28;20346;-55
2023/06/10 06:09:40;;;;;;;;;;;26.20;43.70;;;;;;5063019;28;20417;-56
2023/06/10 06:12:09;;;;;;;;;;;26.20;43.80;;;;;;5074050;28;19991;-56
2023/06/10 06:14:37;;;;;;;;;;;26.10;43.80;;;;;;5067285;28;19917;-55
2023/06/10 06:17:02;;;;;;;;;;;26.20;43.80;;;;;;5055724;28;20982;-55
2023/06/10 06:19:28;;;;;;;;;;;26.20;43.80;;;;;;5057193;28;19920;-55
2023/06/10 06:21:53;;;;;;;;;;;26.10;43.80;;;;;;5060348;28;19915;-55
2023/06/10 06:24:18;;;;;;;;;;;26.10;43.80;;;;;;5058294;28;19920;-54
2023/06/10 06:26:45;;;;;;;;;;;26.20;43.90;;;;;;5052996;28;19913;-54
2023/06/10 06:29:10;;;;;;;;;;;26.10;43.80;;;;;;5058218;28;19913;-55
2023/06/10 06:31:36;;;;;;;;;;;26.10;43.90;;;;;;5056598;28;19916;-55
2023/06/10 06:34:01;;;;;;;;;;;26.10;43.80;;;;;;5094300;28;20007;-55
2023/06/10 06:36:27;;;;;;;;;;;26.10;43.80;;;;;;5073675;28;19913;-55
2023/06/10 06:38:52;;;;;;;;;;;26.10;43.90;;;;;;5106211;28;19915;-55
2023/06/10 06:41:18;;;;;;;;;;;26.10;43.90;;;;;;5072500;28;19965;-55
2023/06/10 06:43:43;;;;;;;;;;;26.10;43.90;;;;;;5089588;28;20285;-55
2023/06/10 06:46:09;;;;;;;;;;;26.10;44.00;;;;;;5053843;28;19928;-55
2023/06/10 06:48:34;;;;;;;;;;;26.10;44.00;;;;;;5057621;28;19939;-55
2023/06/10 06:51:00;;;;;;;;;;;26.10;44.00;;;;;;5058571;28;19959;-55
2023/06/10 06:53:25;;;;;;;;;;;26.10;44.00;;;;;;5070672;28;19955;-56
2023/06/10 06:55:51;;;;;;;;;;;26.10;44.00;;;;;;5057987;28;19912;-55
2023/06/10 06:58:16;;;;;;;;;;;26.10;44.00;;;;;;5062261;28;19913;-55
2023/06/10 07:00:42;;;;;;;;;;;26.10;44.10;;;;;;5053929;28;20328;-55
2023/06/10 07:03:07;;;;;;;;;;;26.10;44.10;;;;;;5066037;28;19913;-55
2023/06/10 07:05:33;;;;;;;;;;;26.10;44.10;;;;;;5068663;28;20004;-56
2023/06/10 07:07:58;;;;;;;;;;;26.10;44.20;;;;;;5069058;28;19920;-55
2023/06/10 07:10:24;;;;;;;;;;;26.10;44.10;;;;;;5094015;28;19970;-56
2023/06/10 07:12:49;;;;;;;;;;;26.10;44.10;;;;;;5062022;28;19962;-55
2023/06/10 07:15:15;;;;;;;;;;;26.10;44.20;;;;;;5071956;28;19990;-55
2023/06/10 07:17:40;;;;;;;;;;;26.10;44.30;;;;;;5073170;28;19920;-55
2023/06/10 07:20:06;;;;;;;;;;;26.10;44.30;;;;;;5072155;28;20011;-55
2023/06/10 07:22:31;;;;;;;;;;;26.10;44.30;;;;;;5065433;28;19920;-55
2023/06/10 07:24:57;;;;;;;;;;;26.10;44.30;;;;;;5075042;28;19923;-55
2023/06/10 07:27:23;;;;;;;;;;;26.10;44.40;;;;;;5073825;28;19999;-55
2023/06/10 07:29:48;;;;;;;;;;;26.10;44.40;;;;;;5071911;28;20012;-55
2023/06/10 07:32:13;;;;;;;;;;;26.00;44.30;;;;;;5074451;28;19978;-55
2023/06/10 07:34:39;;;;;;;;;;;26.10;44.40;;;;;;5073284;28;19912;-55
2023/06/10 07:37:05;;;;;;;;;;;26.10;44.40;;;;;;5073644;28;19909;-55
2023/06/10 07:39:30;;;;;;;;;;;26.10;44.40;;;;;;5065812;28;19939;-55
2023/06/10 07:41:56;;;;;;;;;;;26.10;44.40;;;;;;5054033;28;20258;-55
2023/06/10 07:44:22;;;;;;;;;;;26.10;45.10;;;;;;5097698;28;20376;-55
2023/06/10 07:46:48;;;;;;;;;;;26.10;44.40;;;;;;5052723;28;19908;-55
2023/06/10 07:49:13;;;;;;;;;;;26.10;44.50;;;;;;5068808;28;20721;-55
2023/06/10 07:51:39;;;;;;;;;;;26.10;44.60;;;;;;5072401;28;19924;-54
2023/06/10 07:54:04;;;;;;;;;;;26.10;44.40;;;;;;5073329;28;20276;-55
2023/06/10 07:56:30;;;;;;;;;;;26.10;44.50;;;;;;5070396;28;19954;-55
2023/06/10 07:58:55;;;;;;;;;;;26.10;44.50;;;;;;5077502;28;19966;-55
2023/06/10 08:01:22;;;;;;;;;;;26.10;44.50;;;;;;5057661;28;20017;-55
2023/06/10 08:03:47;;;;;;;;;;;26.10;44.50;;;;;;5061419;28;19917;-55
2023/06/10 08:06:13;;;;;;;;;;;26.10;44.40;;;;;;5052669;28;19964;-55
2023/06/10 08:08:43;;;;;;;;;;;26.10;44.40;;;;;;5052589;28;19917;-55
2023/06/10 08:11:10;;;;;;;;;;;26.10;44.50;;;;;;5062111;28;19920;-55
2023/06/10 08:13:35;;;;;;;;;;;26.10;44.80;;;;;;5071744;28;19912;-55
2023/06/10 08:16:01;;;;;;;;;;;26.20;44.60;;;;;;5071636;28;19915;-55
2023/06/10 08:18:26;;;;;;;;;;;26.20;44.50;;;;;;5058336;28;19955;-55
2023/06/10 08:20:52;;;;;;;;;;;26.10;44.70;;;;;;5065167;28;19917;-55
2023/06/10 08:23:19;;;;;;;;;;;26.20;44.70;;;;;;5060081;28;19923;-55
2023/06/10 08:25:44;;;;;;;;;;;26.20;44.50;;;;;;5095393;28;19969;-55
2023/06/10 08:28:10;;;;;;;;;;;26.20;44.70;;;;;;5056003;28;19913;-55
2023/06/10 08:30:35;;;;;;;;;;;26.20;44.60;;;;;;5065650;28;19916;-54
2023/06/10 08:33:01;;;;;;;;;;;26.20;44.90;;;;;;5059154;28;19913;-55
2023/06/10 08:35:26;;;;;;;;;;;26.20;44.80;;;;;;5058861;28;20331;-54
2023/06/10 08:37:52;;;;;;;;;;;26.20;44.80;;;;;;5067949;28;19913;-55
2023/06/10 08:40:17;;;;;;;;;;;26.20;45.10;;;;;;5049921;28;19963;-56
2023/06/10 08:42:44;;;;;;;;;;;26.20;44.90;;;;;;5055066;28;19963;-55
2023/06/10 08:45:12;;;;;;;;;;;26.20;44.90;;;;;;5083976;28;19991;-55
2023/06/10 08:47:37;;;;;;;;;;;26.20;45.10;;;;;;5055931;28;19958;-55
2023/06/10 08:50:03;;;;;;;;;;;26.20;44.90;;;;;;5084279;28;19913;-55
2023/06/10 08:52:29;;;;;;;;;;;26.20;44.90;;;;;;5057876;28;19923;-55
2023/06/10 08:55:03;;;;;;;;;;;26.20;45.20;;;;;;5061891;28;19976;-54
2023/06/10 08:57:28;;;;;;;;;;;26.20;44.90;;;;;;5066608;28;20342;-55
2023/06/10 08:59:55;;;;;;;;;;;26.30;45.30;;;;;;5051709;28;20066;-55
2023/06/10 09:02:21;;;;;;;;;;;26.30;45.20;;;;;;5053921;28;20004;-53
2023/06/10 09:04:46;;;;;;;;;;;26.30;45.60;;;;;;5068445;28;19999;-53
2023/06/10 09:07:12;;;;;;;;;;;26.30;45.70;;;;;;5069456;28;19916;-53
2023/06/10 09:09:37;;;;;;;;;;;26.30;45.30;;;;;;5083033;28;19936;-53
2023/06/10 09:12:03;;;;;;;;;;;26.30;45.40;;;;;;5083929;28;19913;-53
2023/06/10 09:14:29;;;;;;;;;;;26.30;45.60;;;;;;5064665;28;19928;-53
2023/06/10 09:16:56;;;;;;;;;;;26.30;45.30;;;;;;5071183;28;20380;-53
2023/06/10 09:19:22;;;;;;;;;;;26.40;45.50;;;;;;5102655;28;19913;-53
2023/06/10 09:21:48;;;;;;;;;;;26.40;45.60;;;;;;5094388;28;20015;-53
2023/06/10 09:24:13;;;;;;;;;;;26.40;45.60;;;;;;5059796;28;20026;-53
2023/06/10 09:26:39;;;;;;;;;;;26.50;45.60;;;;;;5064314;28;19920;-53
2023/06/10 09:29:05;;;;;;;;;;;26.50;45.60;;;;;;5071848;28;19912;-53
2023/06/10 09:31:30;;;;;;;;;;;26.60;45.30;;;;;;5073730;28;20094;-53
2023/06/10 09:34:04;;;;;;;;;;;26.60;45.40;;;;;;5075413;28;20281;-53
2023/06/10 09:36:31;;;;;;;;;;;26.60;45.50;;;;;;5070337;28;19989;-53
2023/06/10 09:38:57;;;;;;;;;;;26.60;45.30;;;;;;5055817;28;19928;-53
2023/06/10 09:41:23;;;;;;;;;;;26.70;45.30;;;;;;5055437;28;20376;-53
2023/06/10 09:43:49;;;;;;;;;;;26.70;45.30;;;;;;5094885;28;20360;-53
2023/06/10 09:46:16;;;;;;;;;;;26.70;45.40;;;;;;5075410;28;19912;-53
2023/06/10 09:48:43;;;;;;;;;;;26.80;45.30;;;;;;5067597;28;19913;-53
2023/06/10 09:51:08;;;;;;;;;;;26.80;45.30;;;;;;5053509;28;19917;-53
2023/06/10 09:53:34;;;;;;;;;;;26.80;45.30;;;;;;5055155;28;19923;-53
2023/06/10 09:55:59;;;;;;;;;;;26.80;45.20;;;;;;5061538;28;19966;-54
2023/06/10 09:58:37;;;;;;;;;;;26.80;45.30;;;;;;5104125;28;19959;-54
2023/06/10 10:01:09;;;;;;;;;;;26.80;45.30;;;;;;5056145;28;19966;-53
2023/06/10 10:03:48;;;;;;;;;;;26.90;45.20;;;;;;5072329;28;19955;-55
2023/06/10 10:06:14;;;;;;;;;;;26.90;45.20;;;;;;5069332;28;19976;-54
2023/06/10 10:08:39;;;;;;;;;;;26.90;45.20;;;;;;5106690;28;20285;-52
2023/06/10 10:11:05;;;;;;;;;;;27.00;45.40;;;;;;5074193;28;19962;-53
2023/06/10 10:13:31;;;;;;;;;;;27.00;45.10;;;;;;5072828;28;20016;-53
2023/06/10 10:15:57;;;;;;;;;;;27.00;45.30;;;;;;5059974;28;19913;-53
2023/06/10 10:18:25;;;;;;;;;;;27.00;45.30;;;;;;5073674;28;19960;-53
2023/06/10 10:20:52;;;;;;;;;;;27.00;45.40;;;;;;5103301;28;20021;-53
2023/06/10 10:23:29;;;;;;;;;;;27.00;45.40;;;;;;5059928;28;19917;-53
2023/06/10 10:25:55;;;;;;;;;;;27.00;45.50;;;;;;5056764;28;19917;-53
2023/06/10 10:28:21;;;;;;;;;;;27.00;45.40;;;;;;5072668;28;19917;-53
2023/06/10 10:30:48;;;;;;;;;;;27.00;45.30;;;;;;5060336;28;19916;-53
2023/06/10 10:33:17;;;;;;;;;;;27.10;45.40;;;;;;5073844;28;19924;-54
2023/06/10 10:35:43;;;;;;;;;;;27.10;45.50;;;;;;5073546;28;19909;-53
2023/06/10 10:38:08;;;;;;;;;;;27.10;45.30;;;;;;5072961;28;19919;-53
2023/06/10 10:40:34;;;;;;;;;;;27.20;45.40;;;;;;5105435;28;19948;-53
2023/06/10 10:42:59;;;;;;;;;;;27.20;45.30;;;;;;5059768;28;20069;-52
2023/06/10 10:45:25;;;;;;;;;;;27.20;45.30;;;;;;5051348;28;19917;-52
2023/06/10 10:47:56;;;;;;;;;;;27.20;45.50;;;;;;5061186;28;20421;-52
2023/06/10 10:50:21;;;;;;;;;;;27.20;45.50;;;;;;5054721;28;20369;-53
2023/06/10 10:53:07;;;;;;;;;;;27.20;45.10;;;;;;5054977;28;20012;-53
2023/06/10 10:55:33;;;;;;;;;;;27.20;45.10;;;;;;5068754;28;19912;-53
2023/06/10 10:58:05;;;;;;;;;;;27.20;45.40;;;;;;5060689;28;19912;-53
2023/06/10 11:00:31;;;;;;;;;;;27.30;45.40;;;;;;5068980;28;19912;-53
2023/06/10 11:02:57;;;;;;;;;;;27.20;45.20;;;;;;5066993;28;19913;-53
2023/06/10 11:05:30;;;;;;;;;;;27.30;45.40;;;;;;5055109;28;19920;-53
2023/06/10 11:07:56;;;;;;;;;;;27.30;45.40;;;;;;5062720;28;20424;-53
2023/06/10 11:10:34;;;;;;;;;;;27.40;45.40;;;;;;5054552;28;19916;-53
2023/06/10 11:13:00;;;;;;;;;;;27.40;45.30;;;;;;5053578;28;20398;-53
2023/06/10 11:15:27;;;;;;;;;;;27.40;45.30;;;;;;5053788;28;19908;-54
2023/06/10 11:18:10;;;;;;;;;;;27.50;45.40;;;;;;5059451;28;19913;-53
2023/06/10 11:20:47;;;;;;;;;;;27.40;45.40;;;;;;5058079;28;19912;-53
2023/06/10 11:23:28;;;;;;;;;;;27.50;45.70;;;;;;5072892;28;20398;-53
2023/06/10 11:26:12;;;;;;;;;;;27.50;45.50;;;;;;5058986;28;19936;-53
2023/06/10 11:28:38;;;;;;;;;;;27.50;45.70;;;;;;5053748;28;20277;-53
2023/06/10 11:31:04;;;;;;;;;;;27.50;45.50;;;;;;5062065;28;19919;-53
2023/06/10 11:33:29;;;;;;;;;;;27.50;45.70;;;;;;5072090;28;20331;-54
2023/06/10 11:35:55;;;;;;;;;;;27.50;45.60;;;;;;5085300;28;19920;-53
2023/06/10 11:38:20;;;;;;;;;;;27.50;45.70;;;;;;5053495;28;20126;-53
2023/06/10 11:40:47;;;;;;;;;;;27.60;45.60;;;;;;5053504;28;20277;-53
2023/06/10 11:43:13;;;;;;;;;;;27.60;45.70;;;;;;5073824;28;19920;-53
2023/06/10 11:45:40;;;;;;;;;;;27.60;45.60;;;;;;5062470;28;19920;-53
2023/06/10 11:48:06;;;;;;;;;;;27.70;45.90;;;;;;5053409;28;19909;-53
2023/06/10 11:50:31;;;;;;;;;;;27.70;45.70;;;;;;5054124;28;20335;-53
2023/06/10 11:52:58;;;;;;;;;;;27.70;45.80;;;;;;5052448;28;19909;-53
2023/06/10 11:55:43;;;;;;;;;;;27.80;45.80;;;;;;5054549;28;19913;-53
2023/06/10 11:58:14;;;;;;;;;;;27.70;45.70;;;;;;5068257;28;19974;-53
2023/06/10 12:00:53;;;;;;;;;;;27.70;45.90;;;;;;5066575;28;19974;-53
2023/06/10 12:03:18;;;;;;;;;;;27.80;45.90;;;;;;5067241;28;20361;-53
2023/06/10 12:05:59;;;;;;;;;;;27.80;45.90;;;;;;5088310;28;19919;-53
2023/06/10 12:08:24;;;;;;;;;;;27.80;46.40;;;;;;5071835;28;19946;-53
2023/06/10 12:10:50;;;;;;;;;;;27.80;45.80;;;;;;5070103;28;19913;-53
2023/06/10 12:13:17;;;;;;;;;;;27.80;45.90;;;;;;5056781;28;19913;-53
2023/06/10 12:15:44;;;;;;;;;;;27.90;45.90;;;;;;5060863;28;20439;-55
2023/06/10 12:18:15;;;;;;;;;;;27.90;45.90;;;;;;5056973;28;19974;-56
2023/06/10 12:20:42;;;;;;;;;;;27.90;45.90;;;;;;5071275;28;19944;-56
2023/06/10 12:23:08;;;;;;;;;;;28.00;45.90;;;;;;5072484;28;19949;-55
2023/06/10 12:25:34;;;;;;;;;;;28.00;45.90;;;;;;5056388;28;19947;-55
2023/06/10 12:27:59;;;;;;;;;;;28.00;46.70;;;;;;5068164;28;19975;-55
2023/06/10 12:30:26;;;;;;;;;;;28.00;45.90;;;;;;5087445;28;19917;-55
2023/06/10 12:32:52;;;;;;;;;;;28.00;46.00;;;;;;5065114;28;19966;-55
2023/06/10 12:35:18;;;;;;;;;;;28.00;46.00;;;;;;5071400;28;19908;-55
2023/06/10 12:37:54;;;;;;;;;;;28.00;45.90;;;;;;5065651;28;20386;-55
2023/06/10 12:40:24;;;;;;;;;;;28.00;46.10;;;;;;5054638;28;19967;-54
2023/06/10 12:42:50;;;;;;;;;;;28.10;46.10;;;;;;5065498;28;19990;-55
2023/06/10 12:45:15;;;;;;;;;;;28.00;45.90;;;;;;5086713;28;20357;-55
2023/06/10 12:47:42;;;;;;;;;;;28.20;45.90;;;;;;5087931;28;20343;-55
2023/06/10 12:50:07;;;;;;;;;;;28.20;46.00;;;;;;5054535;28;20349;-55
2023/06/10 12:52:33;;;;;;;;;;;28.10;45.90;;;;;;5059981;28;19955;-55
2023/06/10 12:54:58;;;;;;;;;;;28.20;46.00;;;;;;5071461;28;19912;-55
2023/06/10 12:57:24;;;;;;;;;;;28.20;45.90;;;;;;5084953;28;20315;-55
2023/06/10 12:59:52;;;;;;;;;;;28.20;46.00;;;;;;5052524;28;19981;-55
2023/06/10 13:02:20;;;;;;;;;;;28.20;46.10;;;;;;5066272;28;19999;-56
2023/06/10 13:04:46;;;;;;;;;;;28.20;46.00;;;;;;5055759;28;19973;-55
2023/06/10 13:07:11;;;;;;;;;;;28.20;45.90;;;;;;5051972;28;20292;-55
2023/06/10 13:09:37;;;;;;;;;;;28.20;46.10;;;;;;5051407;28;19921;-54
2023/06/10 13:12:02;;;;;;;;;;;28.20;46.00;;;;;;5057753;28;19915;-55
2023/06/10 13:14:28;;;;;;;;;;;28.20;46.00;;;;;;5053483;28;19912;-55
2023/06/10 13:16:54;;;;;;;;;;;28.30;45.90;;;;;;5051982;28;19914;-55
2023/06/10 13:19:21;;;;;;;;;;;28.30;45.90;;;;;;5051536;28;19932;-55
2023/06/10 13:21:47;;;;;;;;;;;28.30;45.90;;;;;;5059515;28;19996;-55
2023/06/10 13:24:12;;;;;;;;;;;28.30;45.90;;;;;;5058844;28;20028;-55
2023/06/10 13:26:38;;;;;;;;;;;28.40;46.00;;;;;;5062026;28;19966;-55
2023/06/10 13:29:04;;;;;;;;;;;28.30;46.10;;;;;;5063061;28;19982;-54
2023/06/10 13:31:29;;;;;;;;;;;28.30;46.10;;;;;;5069761;28;19920;-55
2023/06/10 13:33:54;;;;;;;;;;;28.40;46.00;;;;;;5071879;28;19966;-55
2023/06/10 13:36:20;;;;;;;;;;;28.40;45.80;;;;;;5067649;28;19908;-55
2023/06/10 13:38:47;;;;;;;;;;;28.40;45.80;;;;;;5059824;28;20372;-55
2023/06/10 13:41:13;;;;;;;;;;;28.40;45.90;;;;;;5071003;28;19909;-55
2023/06/10 13:43:39;;;;;;;;;;;28.30;46.20;;;;;;5071543;28;19977;-55
2023/06/10 13:46:04;;;;;;;;;;;28.30;46.30;;;;;;5071386;28;19916;-54
2023/06/10 13:48:30;;;;;;;;;;;28.20;46.50;;;;;;5071937;28;19916;-55
2023/06/10 13:50:56;;;;;;;;;;;28.20;46.50;;;;;;5058275;28;19971;-54
2023/06/10 13:53:21;;;;;;;;;;;28.30;46.60;;;;;;5049766;28;20008;-55
2023/06/10 13:55:47;;;;;;;;;;;28.30;46.70;;;;;;5057617;28;19912;-55
2023/06/10 13:58:13;;;;;;;;;;;28.30;46.70;;;;;;5070537;28;19919;-56
2023/06/10 14:00:38;;;;;;;;;;;28.20;46.70;;;;;;5051880;28;19967;-55
2023/06/10 14:03:04;;;;;;;;;;;28.20;46.90;;;;;;5056334;28;19986;-55
2023/06/10 14:05:29;;;;;;;;;;;28.30;47.00;;;;;;5097482;28;20407;-56
2023/06/10 14:07:54;;;;;;;;;;;28.30;47.00;;;;;;5070694;28;19999;-56
2023/06/10 14:10:20;;;;;;;;;;;28.40;47.00;;;;;;5066476;28;19924;-56
2023/06/10 14:12:46;;;;;;;;;;;28.40;47.00;;;;;;5053485;28;19913;-55